Time;durP1;ratioP1;P1;durP2;ratioP2;P2;SDS_P1;SDS_P2;PMS_P1;PMS_P2;Temp;Humidity;BMP_temperature;BMP_pressure;BME280_temperature;BME280_humidity;BME280_pressure;Samples;Min_cycle;Max_cycle;Signal;HPM_P1;HPM_P2
2022/04/25 00:00:35;;;;;;;2.47;2.28;;;;;;;;;;4926178;29;20222;-70
2022/04/25 00:03:03;;;;;;;2.53;2.33;;;;;;;;;;4927715;29;20201;-74
2022/04/25 00:05:31;;;;;;;3.30;3.00;;;;;;;;;;4933410;29;20482;-72
2022/04/25 00:07:58;;;;;;;2.70;2.50;;;;;;;;;;4933466;29;20543;-71
2022/04/25 00:10:26;;;;;;;2.40;2.20;;;;;;;;;;4926340;29;20226;-74
2022/04/25 00:12:53;;;;;;;2.53;2.33;;;;;;;;;;4936966;29;20221;-73
2022/04/25 00:15:21;;;;;;;3.22;3.00;;;;;;;;;;4931035;29;20669;-70
2022/04/25 00:17:48;;;;;;;3.95;2.58;;;;;;;;;;4939629;29;20670;-71
2022/04/25 00:20:15;;;;;;;5.32;2.70;;;;;;;;;;4933417;29;20223;-72
2022/04/25 00:22:45;;;;;;;3.08;2.78;;;;;;;;;;4938228;29;20199;-72
2022/04/25 00:25:12;;;;;;;3.30;2.65;;;;;;;;;;4936715;29;20202;-72
2022/04/25 00:27:39;;;;;;;3.55;2.65;;;;;;;;;;4928923;29;20210;-72
2022/04/25 00:30:07;;;;;;;3.20;2.90;;;;;;;;;;4938062;29;20544;-72
2022/04/25 00:32:34;;;;;;;2.42;2.22;;;;;;;;;;4936380;29;20195;-73
2022/04/25 00:35:03;;;;;;;3.88;2.72;;;;;;;;;;4930413;29;20195;-72
2022/04/25 00:37:30;;;;;;;3.47;3.17;;;;;;;;;;4933421;29;20202;-73
2022/04/25 00:39:58;;;;;;;3.60;3.30;;;;;;;;;;4936374;29;20243;-73
2022/04/25 00:42:27;;;;;;;2.90;2.40;;;;;;;;;;4933738;29;20203;-72
2022/04/25 00:44:54;;;;;;;2.75;2.55;;;;;;;;;;4935152;29;20199;-71
2022/04/25 00:47:21;;;;;;;2.67;2.47;;;;;;;;;;4935951;29;20199;-74
2022/04/25 00:49:49;;;;;;;3.17;2.97;;;;;;;;;;4928539;29;20204;-73
2022/04/25 00:52:16;;;;;;;3.47;2.80;;;;;;;;;;4934599;29;20212;-72
2022/04/25 00:54:43;;;;;;;4.05;3.30;;;;;;;;;;4926150;29;20203;-73
2022/04/25 00:57:11;;;;;;;3.17;2.88;;;;;;;;;;4934813;29;20586;-75
2022/04/25 00:59:38;;;;;;;3.85;3.33;;;;;;;;;;4936117;29;20661;-71
2022/04/25 01:02:06;;;;;;;3.00;2.70;;;;;;;;;;4938084;29;20559;-72
2022/04/25 01:04:33;;;;;;;3.35;3.05;;;;;;;;;;4925187;29;20211;-72
2022/04/25 01:07:00;;;;;;;2.95;2.70;;;;;;;;;;4942322;29;20195;-73
2022/04/25 01:09:27;;;;;;;4.38;2.80;;;;;;;;;;4927060;29;20582;-78
2022/04/25 01:11:54;;;;;;;2.70;2.50;;;;;;;;;;4932299;29;20199;-72
2022/04/25 01:14:23;;;;;;;3.00;2.80;;;;;;;;;;4931654;29;20195;-74
2022/04/25 01:16:50;;;;;;;3.25;2.25;;;;;;;;;;4937347;29;20202;-73
2022/04/25 01:19:18;;;;;;;2.65;2.45;;;;;;;;;;4935289;29;20225;-74
2022/04/25 01:21:45;;;;;;;3.00;2.70;;;;;;;;;;4929694;29;20319;-72
2022/04/25 01:27:17;;;;;;;4.00;3.38;;;;;;;;;;4934230;29;20225;-72
2022/04/25 01:29:44;;;;;;;2.88;2.67;;;;;;;;;;4930124;29;20202;-73
2022/04/25 01:32:12;;;;;;;3.72;2.95;;;;;;;;;;4934081;29;20199;-70
2022/04/25 01:34:39;;;;;;;3.10;2.67;;;;;;;;;;4930955;29;20222;-71
2022/04/25 01:37:07;;;;;;;3.83;3.15;;;;;;;;;;4938212;29;20576;-71
2022/04/25 01:39:37;;;;;;;2.83;2.63;;;;;;;;;;4933070;29;20226;-71
2022/04/25 01:42:04;;;;;;;4.47;3.30;;;;;;;;;;4926225;29;20199;-72
2022/04/25 01:44:31;;;;;;;3.00;2.70;;;;;;;;;;4932839;29;20195;-71
2022/04/25 01:46:58;;;;;;;4.13;2.63;;;;;;;;;;4933185;29;20195;-73
2022/04/25 01:49:26;;;;;;;3.00;2.70;;;;;;;;;;4926479;29;20199;-74
2022/04/25 01:51:53;;;;;;;3.00;2.80;;;;;;;;;;4935546;29;20207;-73
2022/04/25 01:54:24;;;;;;;3.42;2.25;;;;;;;;;;4934123;29;20199;-73
2022/04/25 01:56:52;;;;;;;2.80;2.60;;;;;;;;;;4935606;29;20643;-72
2022/04/25 01:59:20;;;;;;;4.03;3.05;;;;;;;;;;4934296;29;20190;-73
2022/04/25 02:01:47;;;;;;;2.65;2.45;;;;;;;;;;4933845;29;20223;-73
2022/04/25 02:04:14;;;;;;;5.75;2.70;;;;;;;;;;4935292;29;20191;-71
2022/04/25 02:06:41;;;;;;;3.45;3.15;;;;;;;;;;4932967;29;20195;-72
2022/04/25 02:09:08;;;;;;;4.10;3.70;;;;;;;;;;4930084;29;20669;-72
2022/04/25 02:11:35;;;;;;;3.50;3.20;;;;;;;;;;4932747;29;20207;-71
2022/04/25 02:14:04;;;;;;;4.40;3.20;;;;;;;;;;4929203;29;20202;-70
2022/04/25 02:16:31;;;;;;;2.78;2.20;;;;;;;;;;4934292;29;20199;-73
2022/04/25 02:18:58;;;;;;;3.20;2.90;;;;;;;;;;4934658;29;20206;-71
2022/04/25 02:21:25;;;;;;;3.63;2.33;;;;;;;;;;4934056;29;20223;-72
2022/04/25 02:23:52;;;;;;;2.60;2.40;;;;;;;;;;4927301;29;20216;-70
2022/04/25 02:26:20;;;;;;;3.38;3.10;;;;;;;;;;4933813;29;20195;-70
2022/04/25 02:28:47;;;;;;;2.50;2.30;;;;;;;;;;4930160;29;20214;-74
2022/04/25 02:31:15;;;;;;;3.50;3.20;;;;;;;;;;4932585;29;20209;-71
2022/04/25 02:33:42;;;;;;;4.05;2.80;;;;;;;;;;4931440;29;20207;-71
2022/04/25 02:36:09;;;;;;;2.70;2.15;;;;;;;;;;4931603;29;20198;-72
2022/04/25 02:38:37;;;;;;;3.33;2.22;;;;;;;;;;4949755;29;20214;-70
2022/04/25 02:41:09;;;;;;;2.35;2.15;;;;;;;;;;4937308;29;20225;-74
2022/04/25 02:43:37;;;;;;;2.20;2.00;;;;;;;;;;4929114;29;20302;-71
2022/04/25 02:46:05;;;;;;;2.42;2.22;;;;;;;;;;4931853;29;20195;-71
2022/04/25 02:48:33;;;;;;;3.15;1.92;;;;;;;;;;4932882;29;20203;-70
2022/04/25 02:51:00;;;;;;;3.00;2.20;;;;;;;;;;4930969;29;20573;-71
2022/04/25 02:53:28;;;;;;;2.70;2.50;;;;;;;;;;4934169;29;20199;-74
2022/04/25 02:55:55;;;;;;;2.20;2.00;;;;;;;;;;4938294;29;20210;-73
2022/04/25 02:58:22;;;;;;;4.35;2.70;;;;;;;;;;4934038;29;20201;-73
2022/04/25 03:00:50;;;;;;;2.38;2.10;;;;;;;;;;4927852;29;20226;-72
2022/04/25 03:03:17;;;;;;;2.60;2.40;;;;;;;;;;4933030;29;20203;-71
2022/04/25 03:05:46;;;;;;;2.30;1.90;;;;;;;;;;4922823;29;20215;-72
2022/04/25 03:08:13;;;;;;;2.45;2.25;;;;;;;;;;4945386;29;20190;-72
2022/04/25 03:10:42;;;;;;;2.17;1.98;;;;;;;;;;4937881;29;20203;-72
2022/04/25 03:13:09;;;;;;;2.45;2.25;;;;;;;;;;4930973;29;20202;-72
2022/04/25 03:15:38;;;;;;;2.03;1.83;;;;;;;;;;4931294;29;20659;-73
2022/04/25 03:18:05;;;;;;;2.45;1.75;;;;;;;;;;4932975;29;20197;-72
2022/04/25 03:20:32;;;;;;;2.38;1.92;;;;;;;;;;4930840;29;20222;-73
2022/04/25 03:23:01;;;;;;;2.25;2.05;;;;;;;;;;4936023;29;20221;-72
2022/04/25 03:25:28;;;;;;;2.10;1.90;;;;;;;;;;4937116;29;20218;-72
2022/04/25 03:27:55;;;;;;;1.88;1.58;;;;;;;;;;4931519;29;20198;-71
2022/04/25 03:30:22;;;;;;;3.55;1.75;;;;;;;;;;4926714;29;20646;-73
2022/04/25 03:32:49;;;;;;;2.30;2.10;;;;;;;;;;4932300;29;20206;-73
2022/04/25 03:35:18;;;;;;;2.25;2.08;;;;;;;;;;4929204;29;20206;-73
2022/04/25 03:37:45;;;;;;;2.50;2.30;;;;;;;;;;4940398;29;20252;-72
2022/04/25 03:40:14;;;;;;;2.30;2.10;;;;;;;;;;4928313;29;20219;-72
2022/04/25 03:42:43;;;;;;;2.30;2.05;;;;;;;;;;4926791;29;20210;-71
2022/04/25 03:45:10;;;;;;;2.55;2.25;;;;;;;;;;4934338;29;20202;-71
2022/04/25 03:47:38;;;;;;;4.65;2.15;;;;;;;;;;4935629;29;20570;-71
2022/04/25 03:50:07;;;;;;;1.88;1.77;;;;;;;;;;4919127;29;20299;-73
2022/04/25 03:52:34;;;;;;;2.50;2.17;;;;;;;;;;4932290;29;20202;-71
2022/04/25 03:57:47;;;;;;;2.80;2.60;;;;;;;;;;4939794;29;20210;-71
2022/04/25 04:00:14;;;;;;;2.47;2.05;;;;;;;;;;4937757;29;20202;-76
2022/04/25 04:02:43;;;;;;;2.00;1.80;;;;;;;;;;4939416;29;20202;-71
2022/04/25 04:05:10;;;;;;;2.53;2.33;;;;;;;;;;4936592;29;20210;-72
2022/04/25 04:07:37;;;;;;;2.50;2.30;;;;;;;;;;4940718;29;20198;-73
2022/04/25 04:10:04;;;;;;;2.95;2.75;;;;;;;;;;4939563;29;20209;-73
2022/04/25 04:12:32;;;;;;;3.25;2.30;;;;;;;;;;4935799;29;20577;-73
2022/04/25 04:15:02;;;;;;;2.55;2.35;;;;;;;;;;4936687;29;20539;-73
2022/04/25 04:17:29;;;;;;;2.55;2.35;;;;;;;;;;4938629;29;20222;-73
2022/04/25 04:19:56;;;;;;;1.85;1.75;;;;;;;;;;4937687;29;20198;-72
2022/04/25 04:22:25;;;;;;;2.80;2.60;;;;;;;;;;4939376;29;20230;-72
2022/04/25 04:24:52;;;;;;;2.13;2.03;;;;;;;;;;4938059;29;20213;-72
2022/04/25 04:27:20;;;;;;;2.40;2.17;;;;;;;;;;4935795;29;20210;-72
2022/04/25 04:29:47;;;;;;;2.55;2.35;;;;;;;;;;4929573;29;20199;-72
2022/04/25 04:32:15;;;;;;;2.58;2.38;;;;;;;;;;4938902;29;20673;-73
2022/04/25 04:34:42;;;;;;;7.70;2.78;;;;;;;;;;4936790;29;20299;-73
2022/04/25 04:37:09;;;;;;;3.10;2.90;;;;;;;;;;4939104;29;20195;-73
2022/04/25 04:39:37;;;;;;;2.63;2.42;;;;;;;;;;4939768;29;20222;-73
2022/04/25 04:42:04;;;;;;;2.38;2.17;;;;;;;;;;4934190;29;20219;-72
2022/04/25 04:44:31;;;;;;;3.25;2.95;;;;;;;;;;4934994;29;20558;-72
2022/04/25 04:46:58;;;;;;;2.50;2.30;;;;;;;;;;4934115;29;20666;-73
2022/04/25 04:49:26;;;;;;;2.35;2.15;;;;;;;;;;4937914;29;20638;-74
2022/04/25 04:51:53;;;;;;;2.78;2.58;;;;;;;;;;4941430;29;20210;-71
2022/04/25 04:54:20;;;;;;;2.53;2.28;;;;;;;;;;4937251;29;20202;-73
2022/04/25 04:56:47;;;;;;;2.25;2.05;;;;;;;;;;4946124;28;20206;-71
2022/04/25 04:59:15;;;;;;;2.38;2.17;;;;;;;;;;4936808;29;20198;-72
2022/04/25 05:01:42;;;;;;;2.53;2.33;;;;;;;;;;4932518;29;20313;-72
2022/04/25 05:04:09;;;;;;;3.10;1.95;;;;;;;;;;4934996;29;20206;-72
2022/04/25 05:06:38;;;;;;;2.95;2.70;;;;;;;;;;4932954;29;20211;-75
2022/04/25 05:09:05;;;;;;;2.83;2.40;;;;;;;;;;4941130;29;20201;-74
2022/04/25 05:11:32;;;;;;;2.70;2.15;;;;;;;;;;4935525;29;20203;-71
2022/04/25 05:14:04;;;;;;;3.75;2.40;;;;;;;;;;4933765;29;20202;-74
2022/04/25 05:16:31;;;;;;;2.90;2.67;;;;;;;;;;4930967;29;20629;-74
2022/04/25 05:18:59;;;;;;;2.55;2.35;;;;;;;;;;4935588;29;20198;-73
2022/04/25 05:21:26;;;;;;;3.25;2.95;;;;;;;;;;4947271;29;20218;-73
2022/04/25 05:23:54;;;;;;;3.05;2.85;;;;;;;;;;4935830;29;20207;-73
2022/04/25 05:26:21;;;;;;;3.65;3.30;;;;;;;;;;4929949;29;20198;-75
2022/04/25 05:28:48;;;;;;;2.72;2.53;;;;;;;;;;4933037;29;20199;-74
2022/04/25 05:31:16;;;;;;;3.00;2.55;;;;;;;;;;4937195;29;20662;-74
2022/04/25 05:33:43;;;;;;;3.15;2.95;;;;;;;;;;4933169;29;20223;-73
2022/04/25 05:36:10;;;;;;;2.78;2.58;;;;;;;;;;4932961;29;20209;-74
2022/04/25 05:38:37;;;;;;;4.05;3.08;;;;;;;;;;4937465;29;20206;-75
2022/04/25 05:41:07;;;;;;;4.32;3.15;;;;;;;;;;4932589;29;20199;-73
2022/04/25 05:43:34;;;;;;;3.05;2.47;;;;;;;;;;4932699;29;20206;-73
2022/04/25 05:46:01;;;;;;;3.00;2.30;;;;;;;;;;4929757;29;20333;-74
2022/04/25 05:53:58;;;;;;;2.42;2.22;;;;;;;;;;4930495;29;20246;-73
2022/04/25 05:56:27;;;;;;;2.47;2.28;;;;;;;;;;4934864;29;20203;-73
2022/04/25 05:58:54;;;;;;;4.28;3.58;;;;;;;;;;4932141;29;20215;-74
2022/04/25 06:01:21;;;;;;;2.83;2.63;;;;;;;;;;4938916;29;20230;-73
2022/04/25 06:03:48;;;;;;;3.40;3.10;;;;;;;;;;4932057;29;20202;-73
2022/04/25 06:06:18;;;;;;;3.22;2.95;;;;;;;;;;4932539;29;20685;-73
2022/04/25 06:08:45;;;;;;;3.40;3.10;;;;;;;;;;4932397;29;20230;-72
2022/04/25 06:11:12;;;;;;;3.17;2.97;;;;;;;;;;4926749;29;20271;-73
2022/04/25 06:13:44;;;;;;;3.50;2.95;;;;;;;;;;4935058;29;20767;-73
2022/04/25 06:16:11;;;;;;;2.55;2.35;;;;;;;;;;4931737;29;20221;-73
2022/04/25 06:18:38;;;;;;;3.60;2.97;;;;;;;;;;4932833;29;20211;-73
2022/04/25 06:21:05;;;;;;;3.55;3.22;;;;;;;;;;4929642;29;20219;-72
2022/04/25 06:23:33;;;;;;;3.30;3.00;;;;;;;;;;4931429;29;20195;-72
2022/04/25 06:26:00;;;;;;;3.72;2.50;;;;;;;;;;4938788;29;20191;-71
2022/04/25 06:28:29;;;;;;;3.17;2.85;;;;;;;;;;4933268;29;20199;-73
2022/04/25 06:30:58;;;;;;;3.63;3.33;;;;;;;;;;4931773;29;20195;-72
2022/04/25 06:33:26;;;;;;;3.00;2.80;;;;;;;;;;4932659;29;20230;-71
2022/04/25 06:35:53;;;;;;;4.05;3.75;;;;;;;;;;4929152;29;20203;-73
2022/04/25 06:38:21;;;;;;;4.00;3.60;;;;;;;;;;4934609;29;20293;-72
2022/04/25 06:40:48;;;;;;;3.92;3.60;;;;;;;;;;4942678;29;20218;-72
2022/04/25 06:43:15;;;;;;;4.70;3.80;;;;;;;;;;4934332;29;20246;-72
2022/04/25 06:45:43;;;;;;;4.63;4.05;;;;;;;;;;4931090;29;20206;-71
2022/04/25 06:48:11;;;;;;;5.00;4.50;;;;;;;;;;4933675;29;20607;-70
2022/04/25 06:50:38;;;;;;;5.90;3.72;;;;;;;;;;4934986;29;20585;-71
2022/04/25 06:53:05;;;;;;;4.78;4.35;;;;;;;;;;4934230;29;20590;-72
2022/04/25 06:55:34;;;;;;;4.28;3.88;;;;;;;;;;4933502;29;20210;-71
2022/04/25 06:58:02;;;;;;;4.32;3.92;;;;;;;;;;4934636;29;20199;-71
2022/04/25 07:00:29;;;;;;;5.70;4.45;;;;;;;;;;4929928;29;20202;-71
2022/04/25 07:02:56;;;;;;;4.30;3.45;;;;;;;;;;4931867;29;20223;-71
2022/04/25 07:05:25;;;;;;;4.82;4.25;;;;;;;;;;4930205;29;20199;-73
2022/04/25 07:07:52;;;;;;;4.40;4.00;;;;;;;;;;4933033;29;20230;-72
2022/04/25 07:10:19;;;;;;;6.15;4.55;;;;;;;;;;4932861;29;20206;-76
2022/04/25 07:12:46;;;;;;;5.85;4.72;;;;;;;;;;4930721;29;20199;-72
2022/04/25 07:15:13;;;;;;;6.75;4.80;;;;;;;;;;4929470;29;20194;-74
2022/04/25 07:17:40;;;;;;;5.20;3.95;;;;;;;;;;4942477;29;20194;-72
2022/04/25 07:20:08;;;;;;;4.55;4.15;;;;;;;;;;4928106;29;20195;-74
2022/04/25 07:30:51;;;;;;;5.35;4.60;;;;;;;;;;4940473;29;20601;-71
2022/04/25 07:33:18;;;;;;;5.30;4.80;;;;;;;;;;4932151;29;20213;-76
2022/04/25 07:35:45;;;;;;;5.78;5.25;;;;;;;;;;4935837;29;20203;-71
2022/04/25 07:38:14;;;;;;;6.20;4.57;;;;;;;;;;4936443;29;20194;-71
2022/04/25 07:40:43;;;;;;;5.30;4.32;;;;;;;;;;4934770;28;20223;-71
2022/04/25 07:43:10;;;;;;;6.18;5.57;;;;;;;;;;4933653;29;20257;-70
2022/04/25 07:45:37;;;;;;;5.20;4.75;;;;;;;;;;4935899;29;20564;-72
2022/04/25 07:48:05;;;;;;;7.93;6.55;;;;;;;;;;4938352;29;20646;-71
2022/04/25 07:50:32;;;;;;;6.57;5.72;;;;;;;;;;4924143;29;20207;-68
2022/04/25 07:52:59;;;;;;;5.72;5.00;;;;;;;;;;4923977;29;20198;-70
2022/04/25 07:55:27;;;;;;;8.00;5.63;;;;;;;;;;4939201;29;20712;-71
2022/04/25 07:57:54;;;;;;;5.72;4.95;;;;;;;;;;4952185;29;20216;-74
2022/04/25 08:00:22;;;;;;;6.72;5.60;;;;;;;;;;4944215;29;20573;-71
2022/04/25 08:02:49;;;;;;;6.57;5.07;;;;;;;;;;4939647;29;20230;-72
2022/04/25 08:05:16;;;;;;;6.55;5.60;;;;;;;;;;4940147;29;20198;-71
2022/04/25 08:07:43;;;;;;;5.97;5.32;;;;;;;;;;4933557;29;20669;-72
2022/04/25 08:10:10;;;;;;;5.47;4.60;;;;;;;;;;4947615;29;20561;-72
2022/04/25 08:18:08;;;;;;;4.97;4.40;;;;;;;;;;4932741;29;20214;-70
2022/04/25 08:20:36;;;;;;;7.75;6.97;;;;;;;;;;4934489;29;20206;-74
2022/04/25 08:23:04;;;;;;;7.53;6.30;;;;;;;;;;4929746;29;20241;-75
2022/04/25 08:25:31;;;;;;;7.22;5.32;;;;;;;;;;4929275;29;20203;-75
2022/04/25 08:28:00;;;;;;;6.50;5.32;;;;;;;;;;4927811;29;20647;-73
2022/04/25 08:30:28;;;;;;;6.22;5.18;;;;;;;;;;4931839;29;20191;-75
2022/04/25 08:32:55;;;;;;;8.45;5.80;;;;;;;;;;4932172;29;20206;-76
2022/04/25 08:35:23;;;;;;;8.60;6.15;;;;;;;;;;4932443;29;20227;-72
2022/04/25 08:37:50;;;;;;;6.95;5.50;;;;;;;;;;4937277;29;20198;-72
2022/04/25 08:40:17;;;;;;;6.45;5.68;;;;;;;;;;4935849;29;20233;-74
2022/04/25 08:42:44;;;;;;;9.25;6.75;;;;;;;;;;4922029;29;20227;-72
2022/04/25 08:45:13;;;;;;;7.70;5.22;;;;;;;;;;4932592;29;20214;-72
2022/04/25 08:47:45;;;;;;;6.45;5.00;;;;;;;;;;4936376;29;20199;-72
2022/04/25 08:50:12;;;;;;;7.80;5.97;;;;;;;;;;4933408;29;20207;-72
2022/04/25 08:52:40;;;;;;;6.65;5.28;;;;;;;;;;4934882;29;20202;-73
2022/04/25 08:55:08;;;;;;;8.00;5.70;;;;;;;;;;4933324;29;20622;-71
2022/04/25 08:57:36;;;;;;;5.45;4.97;;;;;;;;;;4936519;29;20199;-72
2022/04/25 09:00:05;;;;;;;5.85;5.25;;;;;;;;;;4941144;29;20574;-72
2022/04/25 09:02:34;;;;;;;7.45;5.05;;;;;;;;;;4944026;29;20210;-72
2022/04/25 09:05:01;;;;;;;6.28;5.63;;;;;;;;;;4934074;29;20195;-73
2022/04/25 09:07:28;;;;;;;6.22;5.25;;;;;;;;;;4936282;29;20207;-72
2022/04/25 09:09:56;;;;;;;6.80;6.13;;;;;;;;;;4934827;29;20203;-72
2022/04/25 09:12:23;;;;;;;6.30;5.70;;;;;;;;;;4936624;29;20207;-71
2022/04/25 09:14:51;;;;;;;5.32;4.82;;;;;;;;;;4934581;29;20234;-72
2022/04/25 09:17:18;;;;;;;8.20;6.82;;;;;;;;;;4935517;29;20218;-73
2022/04/25 09:19:47;;;;;;;10.20;6.53;;;;;;;;;;4942814;29;20203;-71
2022/04/25 09:22:14;;;;;;;6.88;6.13;;;;;;;;;;4928640;29;20231;-72
2022/04/25 09:24:45;;;;;;;6.40;5.80;;;;;;;;;;4934932;29;20677;-69
2022/04/25 09:27:14;;;;;;;10.93;7.50;;;;;;;;;;4933765;29;20191;-71
2022/04/25 09:29:42;;;;;;;9.55;6.88;;;;;;;;;;4936367;29;20203;-70
2022/04/25 09:32:09;;;;;;;5.68;4.55;;;;;;;;;;4935644;29;20254;-71
2022/04/25 09:37:40;;;;;;;4.70;4.30;;;;;;;;;;4933043;29;20205;-70
2022/04/25 09:40:07;;;;;;;5.53;5.03;;;;;;;;;;4937560;29;20567;-71
2022/04/25 09:42:36;;;;;;;7.35;5.25;;;;;;;;;;4933453;29;20222;-73
2022/04/25 09:45:04;;;;;;;6.65;4.70;;;;;;;;;;4929072;29;20210;-71
2022/04/25 09:47:32;;;;;;;6.10;4.90;;;;;;;;;;4923807;29;20213;-71
2022/04/25 09:49:59;;;;;;;6.65;4.32;;;;;;;;;;4930764;29;20199;-71
2022/04/25 09:52:28;;;;;;;6.00;4.55;;;;;;;;;;4933305;29;20622;-72
2022/04/25 09:54:58;;;;;;;8.05;4.70;;;;;;;;;;4926114;29;20203;-73
2022/04/25 09:57:31;;;;;;;6.10;5.43;;;;;;;;;;4938909;29;20191;-73
2022/04/25 09:59:59;;;;;;;6.07;5.32;;;;;;;;;;4926757;29;21055;-71
2022/04/25 10:02:27;;;;;;;4.88;4.47;;;;;;;;;;4931232;29;20578;-73
2022/04/25 10:04:54;;;;;;;4.45;4.03;;;;;;;;;;4929095;29;20210;-73
2022/04/25 10:07:23;;;;;;;5.55;4.75;;;;;;;;;;4933114;29;20729;-73
2022/04/25 10:09:53;;;;;;;4.40;4.00;;;;;;;;;;4932159;29;20230;-73
2022/04/25 10:12:20;;;;;;;6.10;4.68;;;;;;;;;;4928775;29;20266;-74
2022/04/25 10:14:47;;;;;;;4.55;4.15;;;;;;;;;;4934871;29;20574;-74
2022/04/25 10:17:16;;;;;;;4.32;3.95;;;;;;;;;;4931321;29;20590;-73
2022/04/25 10:19:45;;;;;;;5.00;4.07;;;;;;;;;;4928436;29;20204;-73
2022/04/25 10:22:12;;;;;;;4.18;3.72;;;;;;;;;;4938763;29;20203;-73
2022/04/25 10:24:41;;;;;;;7.05;4.45;;;;;;;;;;4930866;29;20207;-75
2022/04/25 10:27:12;;;;;;;3.78;3.47;;;;;;;;;;4932191;29;20253;-72
2022/04/25 10:29:44;;;;;;;5.50;4.47;;;;;;;;;;4935389;29;20258;-72
2022/04/25 10:32:12;;;;;;;5.40;4.70;;;;;;;;;;4938392;29;20198;-72
2022/04/25 10:34:47;;;;;;;4.28;3.67;;;;;;;;;;4928358;29;20647;-71
2022/04/25 10:37:30;;;;;;;3.67;3.25;;;;;;;;;;4940587;29;20206;-71
2022/04/25 10:39:57;;;;;;;8.15;3.75;;;;;;;;;;4931914;29;20262;-70
2022/04/25 10:45:11;;;;;;;3.33;3.03;;;;;;;;;;4930151;29;20230;-72
2022/04/25 10:47:38;;;;;;;4.10;3.65;;;;;;;;;;4929852;29;20206;-70
2022/04/25 10:50:06;;;;;;;4.40;4.00;;;;;;;;;;4925108;29;20528;-72
2022/04/25 10:53:01;;;;;;;4.80;4.40;;;;;;;;;;4935593;29;20213;-72
2022/04/25 10:55:43;;;;;;;3.72;3.35;;;;;;;;;;4923251;29;20318;-72
2022/04/25 10:58:12;;;;;;;5.68;4.30;;;;;;;;;;4926298;29;20417;-73
2022/04/25 11:01:01;;;;;;;3.35;3.05;;;;;;;;;;4932104;29;20211;-73
2022/04/25 11:03:29;;;;;;;4.18;3.78;;;;;;;;;;4924998;29;20848;-74
2022/04/25 11:05:57;;;;;;;4.05;3.65;;;;;;;;;;4925073;29;20265;-71
2022/04/25 11:08:25;;;;;;;4.13;3.80;;;;;;;;;;4929290;29;20599;-73
2022/04/25 11:10:52;;;;;;;4.13;3.83;;;;;;;;;;4937649;29;20614;-71
2022/04/25 11:13:22;;;;;;;3.70;3.40;;;;;;;;;;4936103;29;20199;-72
2022/04/25 11:15:49;;;;;;;3.83;3.42;;;;;;;;;;4934067;29;20262;-71
2022/04/25 11:18:23;;;;;;;3.47;3.22;;;;;;;;;;4931293;29;20230;-72
2022/04/25 11:20:56;;;;;;;3.92;3.63;;;;;;;;;;4928016;29;20289;-72
2022/04/25 11:23:29;;;;;;;4.65;4.25;;;;;;;;;;4920583;29;20219;-70
2022/04/25 11:25:56;;;;;;;4.35;3.35;;;;;;;;;;4931399;29;20199;-71
2022/04/25 11:28:25;;;;;;;4.43;4.13;;;;;;;;;;4923476;29;20699;-71
2022/04/25 11:31:11;;;;;;;5.35;3.53;;;;;;;;;;4927562;29;20206;-70
2022/04/25 11:33:44;;;;;;;4.82;4.43;;;;;;;;;;4930117;29;20210;-72
2022/04/25 11:36:11;;;;;;;5.05;4.55;;;;;;;;;;4931583;29;20199;-70
2022/04/25 11:41:23;;;;;;;3.97;3.58;;;;;;;;;;4925038;29;20436;-71
2022/04/25 11:43:52;;;;;;;6.25;3.97;;;;;;;;;;4938321;29;20230;-72
2022/04/25 11:46:19;;;;;;;3.78;3.47;;;;;;;;;;4933350;29;20649;-72
2022/04/25 11:48:49;;;;;;;6.13;5.57;;;;;;;;;;4929939;29;20199;-72
2022/04/25 11:51:23;;;;;;;4.72;3.78;;;;;;;;;;4928698;29;20227;-73
2022/04/25 11:53:53;;;;;;;3.75;3.38;;;;;;;;;;4930125;29;20234;-72
2022/04/25 11:56:21;;;;;;;5.25;4.00;;;;;;;;;;4934835;29;20289;-74
2022/04/25 11:58:49;;;;;;;4.53;3.67;;;;;;;;;;4928111;29;20199;-77
2022/04/25 12:01:32;;;;;;;3.70;3.40;;;;;;;;;;4928057;29;20233;-73
2022/04/25 12:04:14;;;;;;;4.15;3.70;;;;;;;;;;4930325;29;20219;-72
2022/04/25 12:06:46;;;;;;;4.55;4.15;;;;;;;;;;4929749;29;20245;-72
2022/04/25 12:17:38;;;;;;;6.80;4.75;;;;;;;;;;4933623;29;20214;-74
2022/04/25 12:20:07;;;;;;;5.25;4.20;;;;;;;;;;4922576;29;20202;-71
2022/04/25 12:22:35;;;;;;;6.00;5.50;;;;;;;;;;4933549;29;20203;-71
2022/04/25 12:25:11;;;;;;;4.65;4.25;;;;;;;;;;4931953;29;20222;-72
2022/04/25 12:27:38;;;;;;;4.20;3.42;;;;;;;;;;4933863;29;20202;-74
2022/04/25 12:30:06;;;;;;;4.35;3.65;;;;;;;;;;4931869;29;20214;-76
2022/04/25 12:32:34;;;;;;;5.47;3.97;;;;;;;;;;4927543;29;20200;-73
2022/04/25 12:35:02;;;;;;;4.00;3.60;;;;;;;;;;4933783;29;20641;-72
2022/04/25 12:37:30;;;;;;;4.25;3.75;;;;;;;;;;4934030;29;20195;-72
2022/04/25 12:40:03;;;;;;;4.50;2.88;;;;;;;;;;4930666;29;20227;-72
2022/04/25 12:42:44;;;;;;;4.75;3.30;;;;;;;;;;4932212;29;20230;-71
2022/04/25 12:45:12;;;;;;;3.13;2.90;;;;;;;;;;4929877;29;20238;-72
2022/04/25 12:47:43;;;;;;;3.15;2.63;;;;;;;;;;4925842;29;20205;-74
2022/04/25 12:50:12;;;;;;;4.32;3.22;;;;;;;;;;4931845;29;20194;-72
2022/04/25 12:52:49;;;;;;;2.75;2.45;;;;;;;;;;4923456;29;20206;-72
2022/04/25 12:55:16;;;;;;;3.55;3.08;;;;;;;;;;4929691;29;20202;-72
2022/04/25 12:57:51;;;;;;;2.70;2.50;;;;;;;;;;4933464;29;20547;-72
2022/04/25 13:00:18;;;;;;;4.10;3.20;;;;;;;;;;4928182;29;20193;-73
2022/04/25 13:02:45;;;;;;;3.40;3.10;;;;;;;;;;4931077;29;20198;-73
2022/04/25 13:05:14;;;;;;;3.92;3.53;;;;;;;;;;4927474;29;20234;-72
2022/04/25 13:07:42;;;;;;;3.38;2.92;;;;;;;;;;4932146;29;20202;-71
2022/04/25 13:10:10;;;;;;;4.03;3.67;;;;;;;;;;4930217;29;20198;-74
2022/04/25 13:12:37;;;;;;;3.50;3.20;;;;;;;;;;4931498;29;20215;-75
2022/04/25 13:15:06;;;;;;;4.10;3.70;;;;;;;;;;4931070;29;20230;-75
2022/04/25 13:17:33;;;;;;;4.10;3.80;;;;;;;;;;4931997;29;20206;-72
2022/04/25 13:20:00;;;;;;;5.30;4.18;;;;;;;;;;4934072;29;20294;-73
2022/04/25 13:22:28;;;;;;;4.03;3.63;;;;;;;;;;4932212;29;20672;-74
2022/04/25 13:24:56;;;;;;;4.32;3.53;;;;;;;;;;4930796;29;20585;-71
2022/04/25 13:27:23;;;;;;;4.40;4.00;;;;;;;;;;4932659;29;20203;-71
2022/04/25 13:29:50;;;;;;;4.10;3.70;;;;;;;;;;4915569;29;20204;-71
2022/04/25 13:32:18;;;;;;;4.32;3.92;;;;;;;;;;4935680;29;20228;-71
2022/04/25 13:34:45;;;;;;;8.93;4.90;;;;;;;;;;4939865;29;20215;-72
2022/04/25 13:37:13;;;;;;;4.60;4.20;;;;;;;;;;4939682;29;20201;-72
2022/04/25 13:39:41;;;;;;;4.30;3.58;;;;;;;;;;4932594;29;20235;-72
2022/04/25 13:42:09;;;;;;;6.30;3.60;;;;;;;;;;4939306;29;20203;-72
2022/04/25 13:44:36;;;;;;;3.25;2.97;;;;;;;;;;4929147;29;20226;-73
2022/04/25 13:47:03;;;;;;;4.35;3.95;;;;;;;;;;4933317;29;20649;-71
2022/04/25 13:49:31;;;;;;;5.10;4.28;;;;;;;;;;4930150;29;20295;-73
2022/04/25 13:51:58;;;;;;;4.53;4.13;;;;;;;;;;4935830;29;20206;-72
2022/04/25 13:54:25;;;;;;;3.50;3.20;;;;;;;;;;4932092;29;20210;-72
2022/04/25 13:56:55;;;;;;;4.53;4.13;;;;;;;;;;4940363;29;20225;-71
2022/04/25 13:59:23;;;;;;;4.22;3.92;;;;;;;;;;4930416;29;20207;-70
2022/04/25 14:01:50;;;;;;;4.88;4.47;;;;;;;;;;4940067;29;20206;-72
2022/04/25 14:04:17;;;;;;;4.70;3.72;;;;;;;;;;4931429;29;20317;-75
2022/04/25 14:06:45;;;;;;;4.10;3.70;;;;;;;;;;4924325;29;20198;-71
2022/04/25 14:09:13;;;;;;;6.20;4.22;;;;;;;;;;4945524;29;20250;-73
2022/04/25 14:11:40;;;;;;;4.43;3.95;;;;;;;;;;4937285;29;20700;-71
2022/04/25 14:14:08;;;;;;;3.90;3.50;;;;;;;;;;4941306;29;20217;-71
2022/04/25 14:16:36;;;;;;;4.70;4.30;;;;;;;;;;4934290;29;20202;-69
2022/04/25 14:19:03;;;;;;;3.45;3.20;;;;;;;;;;4937962;29;20657;-70
2022/04/25 14:21:30;;;;;;;4.35;3.85;;;;;;;;;;4942171;29;20203;-71
2022/04/25 14:23:57;;;;;;;4.15;3.75;;;;;;;;;;4940613;29;20294;-70
2022/04/25 14:26:25;;;;;;;3.80;3.50;;;;;;;;;;4939206;29;20210;-73
2022/04/25 14:28:53;;;;;;;3.92;3.63;;;;;;;;;;4929079;29;20198;-71
2022/04/25 14:31:21;;;;;;;4.35;3.75;;;;;;;;;;4928915;29;20218;-71
2022/04/25 14:33:48;;;;;;;4.47;4.07;;;;;;;;;;4933566;29;20211;-76
2022/04/25 14:36:15;;;;;;;3.78;3.47;;;;;;;;;;4930769;29;20206;-75
2022/04/25 14:38:42;;;;;;;4.07;3.67;;;;;;;;;;4930832;29;20217;-76
2022/04/25 14:41:09;;;;;;;4.15;3.60;;;;;;;;;;4928847;29;20207;-74
2022/04/25 14:43:36;;;;;;;3.50;3.20;;;;;;;;;;4922197;29;20212;-75
2022/04/25 14:46:04;;;;;;;3.88;3.58;;;;;;;;;;4924912;29;20206;-76
2022/04/25 14:48:33;;;;;;;4.32;3.20;;;;;;;;;;4924482;29;20203;-72
2022/04/25 14:56:30;;;;;;;3.35;3.05;;;;;;;;;;4920239;29;20354;-76
2022/04/25 14:58:58;;;;;;;4.50;3.22;;;;;;;;;;4926872;29;20203;-75
2022/04/25 15:01:27;;;;;;;3.45;3.15;;;;;;;;;;4919993;29;20701;-74
2022/04/25 15:03:56;;;;;;;3.90;3.50;;;;;;;;;;4924508;29;20199;-74
2022/04/25 15:06:23;;;;;;;4.15;3.33;;;;;;;;;;4923662;29;20242;-77
2022/04/25 15:08:50;;;;;;;3.40;3.10;;;;;;;;;;4937574;29;20568;-74
2022/04/25 15:11:17;;;;;;;4.95;4.55;;;;;;;;;;4933948;29;20649;-71
2022/04/25 15:13:44;;;;;;;5.75;4.40;;;;;;;;;;4929293;29;20199;-71
2022/04/25 15:16:13;;;;;;;5.28;4.60;;;;;;;;;;4935551;29;20211;-72
2022/04/25 15:18:40;;;;;;;5.80;5.30;;;;;;;;;;4930050;29;20222;-72
2022/04/25 15:21:11;;;;;;;4.80;4.25;;;;;;;;;;4924639;29;20206;-72
2022/04/25 15:23:38;;;;;;;7.63;5.40;;;;;;;;;;4924752;29;20206;-71
2022/04/25 15:26:06;;;;;;;5.50;4.97;;;;;;;;;;4923992;29;20589;-71
2022/04/25 15:28:33;;;;;;;5.88;5.28;;;;;;;;;;4923280;29;20207;-72
2022/04/25 15:31:00;;;;;;;8.02;6.10;;;;;;;;;;4921504;29;20195;-72
2022/04/25 15:33:27;;;;;;;7.35;6.65;;;;;;;;;;4924175;29;20282;-74
2022/04/25 15:35:54;;;;;;;11.57;7.25;;;;;;;;;;4927427;29;20213;-71